Terminal Aerodrome Forecast
Issued by NWS Sioux Falls, SD

Home | Current Version | Previous Version | Text Only | Print | Product List | Glossary On
Versions: 1 2 3 4 5 6 7 8 9 10 11 12 13 14 15 16 17 18 19 20 21 22 23 24 25 26 27 28 29 30 31 32 33 34 35 36 37 38 39 40 41 42 43 44 45 46 47
000
FTUS43 KFSD 251049 AAB
TAFSUX
TAF AMD
KSUX 251049Z 2511/2606 25005KT 2SM BR SCT004 OVC012
      TEMPO 2511/2514 3/4SM BR BKN004
     FM251400 28005KT 4SM BR OVC015
     FM251700 20007KT P6SM VCTS OVC035CB
      TEMPO 2517/2520 5SM -TSRA
     FM252100 19008KT P6SM VCTS SCT025 OVC050CB=

USA.gov is the U.S. government's official web portal to all federal, state and local government web resources and services.